Aérodrome :
LOGIN :

S'inscrire | Disclaimer

   EN    FR    IT 

 










Légende :    VFR   VFR Marginal   IFR   IFR Intensif   IFR Très Intensif
Visi : 
Plafond : 
>= 8 km
>= 3000ft
5 à 8 km
1000 à 3000 ft
1500m à 5 km
500 à 1000 ft
800 à 1500m
200 à 500 ft
< 800m
< 200 ft
Symboles :   Orages  Brouillard  Fortes neiges  Fortes précipitations  Vent > 20 kt
SIGMETs :   Divers  Orages  Givrage  Turbulence  Onde Orograph.  Cendres Volcan.






- Altitude de l'aérodrome : 184 ft
- Code IATA : BRU


EBBR - Bruxelles

DERNIER METAR :
  • 280820Z 32003KT 290V020 9999 BKN020 03/01 Q0998 NOSIG

METARs EXPIRÉS :
  • 280750Z 34002KT 9999 BKN019 03/01 Q0998 NOSIG
  • 280720Z 36002KT 9999 BKN020 03/01 Q0997 NOSIG
  • 280650Z 36005KT 9999 BKN020 03/01 Q0997 NOSIG
  • 280620Z 35003KT 6000 FEW008 BKN019 03/01 Q0996 TEMPO 4000 BR
  • 280550Z 36004KT 5000 BR FEW008 BKN022 03/02 Q0996 TEMPO 4000 BR BKN008 BKN022

TAF TAF EBBR
Valide du 28 à 06h jusqu'au 29 à 12h UTC


280503Z 2806/2912 34006KT 8000 SCT008 BKN018
TEMPO 2806/2810 4000 BR BKN007
PROB30
TEMPO 2806/2809 BKN004
PROB30
TEMPO 2812/2815 3500 SHRAGS SHRASN BKN006 BKN012TCU
PROB30
TEMPO 2822/2905 4000 BR BKN006
PROB30
TEMPO 2905/2912 3500 SHRAGS SHRASN BKN006 BKN012TCU



MET'MAP, la Météo Aéronautique d'un coup d'oeil ! - Copyright ORBIFLY Décembre 2007 - Disclaimer

ORBIFLY MET'MAP TEAM :

Programmation & Développement : Alexandra Zaïnal
Sur une idée originale de : Baudouin d'Aumeries
Assistance à la programmation : Marc-Olivier Méhu
Soutien technique & logistique : Manuel Goepfert

Contact : metmap@orbifly.com




SOURCES & CREDITS :

   NOAA